Kousyoumaru — JD3278 — position and weather

sailwx.info

Track history (hours):
 
Tides and Currents Weather Stations Pressure Air Temp Water Temp Dewpoint Dewpoint Depression Visibility Wind Speed Wind Dir Waves Ship Positions

Kousyoumaru

Last reported at 2018-Feb-19 04:12 UTC. Time now 2018-Feb-19 14:14 UTC.
Position N 41°46' E 141°16'.

Length 75 m; draft 4.5 m.

Type: Cargo ship. MMSI: 431003083.

Date/timePositionNaut miles runAvg speedWind from/ knotsBaromVisibWave heightAir tempDewpointWater temp
2018-Feb-19 04:12N 41°46' E 141°16'311.2
2018-Feb-19 03:56N 41°44' E 141°19'610.6
2018-Feb-19 03:19N 41°39' E 141°24'411.0
2018-Feb-19 02:59N 41°36' E 141°27'610.4
2018-Feb-19 02:25N 41°30' E 141°29'510.8
2018-Feb-19 01:59N 41°26' E 141°31'1212.1
2018-Feb-19 00:59N 41°13' E 141°32'  
2018-Feb-15 10:03N 35°01' E 139°43'111.0
2018-Feb-15 09:59N 35°01' E 139°43'511.0
2018-Feb-15 09:30N 35°07' E 139°45'611.6
2018-Feb-15 09:00N 35°12' E 139°46'611.1
2018-Feb-15 08:30N 35°18' E 139°44'510.5
2018-Feb-15 08:00N 35°22' E 139°40'0 0.2
2018-Feb-15 07:30N 35°22' E 139°40'0 0.0
2018-Feb-15 07:00N 35°22' E 139°40'0 0.0
2018-Feb-15 06:30N 35°22' E 139°40'0 0.1
2018-Feb-15 06:00N 35°22' E 139°40'0 0.0
2018-Feb-15 05:30N 35°22' E 139°40'0 0.0
2018-Feb-15 05:00N 35°22' E 139°40'0 0.0
2018-Feb-15 04:30N 35°22' E 139°40'0 0.0
2018-Feb-15 04:00N 35°22' E 139°40'0 0.0
2018-Feb-15 03:30N 35°22' E 139°40'0 0.0
2018-Feb-15 03:00N 35°22' E 139°40'0 0.0
2018-Feb-15 02:30N 35°22' E 139°40'0 0.1
2018-Feb-15 02:00N 35°22' E 139°40'0 0.0
2018-Feb-15 01:30N 35°22' E 139°40'0 0.0
2018-Feb-15 01:00N 35°22' E 139°40'0 0.0
2018-Feb-15 00:30N 35°22' E 139°40'0 0.0
2018-Feb-15 00:00N 35°22' E 139°40'0 0.1
2018-Feb-14 23:30N 35°22' E 139°40'0 0.0
2018-Feb-14 22:55N 35°22' E 139°40'3 7.7
2018-Feb-14 22:31N 35°24' E 139°43'612.4
2018-Feb-14 22:00N 35°29' E 139°48'611.5
2018-Feb-14 21:29N 35°34' E 139°51'4 0.3
2018-Feb-14 04:12N 35°38' E 139°48'0 0.7
2018-Feb-14 04:00N 35°38' E 139°48'3 6.3
2018-Feb-14 03:30N 35°36' E 139°51'1 3.0
2018-Feb-14 03:00N 35°34' E 139°52'611.7
2018-Feb-14 02:31N 35°28' E 139°51'612.5
2018-Feb-14 02:01N 35°24' E 139°46'611.7
2018-Feb-14 01:30N 35°18' E 139°45'611.5
2018-Feb-14 00:59N 35°12' E 139°47'611.9
2018-Feb-14 00:30N 35°06' E 139°45'611.7
2018-Feb-14 00:00N 35°02' E 139°40'713.0
2018-Feb-13 23:28N 34°58' E 139°33'1114.2
2018-Feb-13 22:42N 34°52' E 139°22'714.3
2018-Feb-13 22:11N 34°48' E 139°15'314.3
2018-Feb-13 21:58N 34°45' E 139°12'613.4
2018-Feb-13 21:30N 34°42' E 139°06'612.2
2018-Feb-13 20:59N 34°38' E 139°00'611.2
2018-Feb-13 20:27N 34°35' E 138°54'912.7
2018-Feb-13 19:44N 34°35' E 138°43'312.5
2018-Feb-13 19:29N 34°34' E 138°39'712.1
2018-Feb-13 18:54N 34°34' E 138°31'1112.3
2018-Feb-13 18:00N 34°33' E 138°17'713.3
2018-Feb-13 17:29N 34°33' E 138°09'16010.5
2018-Feb-13 02:12N 33°53' E 135°01'312.9
2018-Feb-13 02:00N 33°56' E 135°00'613.0
2018-Feb-13 01:30N 34°02' E 134°60'612.8
2018-Feb-13 01:00N 34°08' E 134°59'612.5
2018-Feb-13 00:30N 34°15' E 134°59'611.1
2018-Feb-13 00:00N 34°20' E 134°60'611.1
2018-Feb-12 23:30N 34°24' E 135°04'611.4
2018-Feb-12 23:00N 34°28' E 135°10'611.6
2018-Feb-12 22:31N 34°31' E 135°15'611.7
2018-Feb-12 22:00N 34°35' E 135°21'5 9.2
2018-Feb-12 21:30N 34°35' E 135°26'1 1.8
2018-Feb-12 20:58N 34°35' E 135°27'0 0.0
2018-Feb-12 20:28N 34°35' E 135°27'0 0.0
2018-Feb-12 19:52N 34°35' E 135°27'0 0.0
2018-Feb-12 19:28N 34°35' E 135°27'0 0.0
2018-Feb-12 18:58N 34°35' E 135°27'0 0.0
2018-Feb-12 18:28N 34°35' E 135°27'0 0.0
2018-Feb-12 17:52N 34°35' E 135°27'0 0.0
2018-Feb-12 17:28N 34°35' E 135°27'0 0.0
2018-Feb-12 16:55N 34°35' E 135°27'0 0.0
2018-Feb-12 16:28N 34°35' E 135°27'0 0.0
2018-Feb-12 15:58N 34°35' E 135°27'0 0.0
2018-Feb-12 15:16N 34°35' E 135°27'0 0.0
2018-Feb-12 14:58N 34°35' E 135°27'0 0.0
2018-Feb-12 14:28N 34°35' E 135°27'0 0.0
2018-Feb-12 13:58N 34°35' E 135°27'0 0.0
2018-Feb-12 13:28N 34°35' E 135°27'0 0.0
2018-Feb-12 12:58N 34°35' E 135°27'0 0.0
2018-Feb-12 12:28N 34°35' E 135°27'0 0.0
2018-Feb-12 11:58N 34°35' E 135°27'0 0.0
2018-Feb-12 11:28N 34°35' E 135°27'0 0.0
2018-Feb-12 10:58N 34°35' E 135°27'0 0.0
2018-Feb-12 10:28N 34°35' E 135°27'0 0.0
2018-Feb-12 09:58N 34°35' E 135°27'0 0.0
2018-Feb-12 09:28N 34°35' E 135°27'0 0.0
2018-Feb-12 08:58N 34°35' E 135°27'0 0.0
2018-Feb-12 08:22N 34°35' E 135°27'0 0.0
2018-Feb-12 07:58N 34°35' E 135°27'0 0.0
2018-Feb-12 07:28N 34°35' E 135°27'0 0.0
2018-Feb-12 06:58N 34°35' E 135°27'0 0.0
2018-Feb-12 06:13N 34°35' E 135°27'0 0.0
2018-Feb-12 05:58N 34°35' E 135°27'0 0.0
2018-Feb-12 05:28N 34°35' E 135°27'0 0.0
2018-Feb-12 04:58N 34°35' E 135°27'0 0.0
2018-Feb-12 04:28N 34°35' E 135°27'0 0.0
2018-Feb-12 03:55N 34°35' E 135°27'0 0.0
2018-Feb-12 03:28N 34°35' E 135°27'0 0.0
2018-Feb-12 02:58N 34°35' E 135°27'0 0.0
2018-Feb-12 02:28N 34°35' E 135°27'0 0.0
2018-Feb-12 01:58N 34°35' E 135°27'0 0.0
2018-Feb-12 01:28N 34°35' E 135°27'0 0.0
2018-Feb-12 00:58N 34°35' E 135°27'0 0.0
2018-Feb-12 00:28N 34°35' E 135°27'0 0.0
2018-Feb-11 23:58N 34°35' E 135°27'0 0.0
2018-Feb-11 23:28N 34°35' E 135°27'0 0.0
2018-Feb-11 22:58N 34°35' E 135°27'0 0.0
2018-Feb-11 22:28N 34°35' E 135°27'0 0.0
2018-Feb-11 21:58N 34°35' E 135°27'0 0.0
2018-Feb-11 21:28N 34°35' E 135°27'0 0.0
2018-Feb-11 20:58N 34°35' E 135°27'0 0.0
2018-Feb-11 20:28N 34°35' E 135°27'0 0.0
2018-Feb-11 19:58N 34°35' E 135°27'0 0.0
2018-Feb-11 19:28N 34°35' E 135°27'0 0.0
2018-Feb-11 18:58N 34°35' E 135°27'0 0.0
2018-Feb-11 18:28N 34°35' E 135°27'0 0.0
2018-Feb-11 17:58N 34°35' E 135°27'0 0.0
2018-Feb-11 17:28N 34°35' E 135°27'0 0.0
2018-Feb-11 16:58N 34°35' E 135°27'0 0.0
2018-Feb-11 16:28N 34°35' E 135°27'0 0.0
2018-Feb-11 16:01N 34°35' E 135°27'0 0.0
2018-Feb-11 15:22N 34°35' E 135°27'0 0.0
2018-Feb-11 14:58N 34°35' E 135°27'0 0.0
2018-Feb-11 14:28N 34°35' E 135°27'0 0.0
2018-Feb-11 13:58N 34°35' E 135°27'0 0.0
2018-Feb-11 13:28N 34°35' E 135°27'0 0.0
2018-Feb-11 12:58N 34°35' E 135°27'0 0.8
2018-Feb-11 12:30N 34°35' E 135°27'0 0.8
2018-Feb-11 12:00N 34°35' E 135°27'0 0.0
2018-Feb-11 11:30N 34°35' E 135°27'0 0.0
2018-Feb-11 10:57N 34°35' E 135°27'0 0.0
2018-Feb-11 10:27N 34°35' E 135°27'0 0.1
2018-Feb-11 10:00N 34°35' E 135°27'0 0.1
2018-Feb-11 09:30N 34°35' E 135°27'0 0.1
2018-Feb-11 08:57N 34°35' E 135°27'0 0.0
2018-Feb-11 08:30N 34°35' E 135°27'0 0.0
2018-Feb-11 07:57N 34°35' E 135°27'1 2.1
2018-Feb-11 07:30N 34°35' E 135°26'4 7.2
2018-Feb-11 07:00N 34°39' E 135°25'3 4.9
2018-Feb-11 06:29N 34°39' E 135°28'0 0.0
2018-Feb-11 06:00N 34°39' E 135°28'0 0.0
2018-Feb-11 05:30N 34°39' E 135°28'0 0.0
2018-Feb-11 05:00N 34°39' E 135°28'0 0.0
2018-Feb-11 04:30N 34°39' E 135°28'0 0.0
2018-Feb-11 04:00N 34°39' E 135°28'0 0.0
2018-Feb-11 03:30N 34°39' E 135°28'0 0.0
2018-Feb-11 03:00N 34°39' E 135°28'0 0.0
2018-Feb-11 02:30N 34°39' E 135°28'0 0.0
2018-Feb-11 02:00N 34°39' E 135°28'0 0.0
2018-Feb-11 01:30N 34°39' E 135°28'0 0.0
2018-Feb-11 01:00N 34°39' E 135°28'0 0.0
2018-Feb-11 00:30N 34°39' E 135°28'0 0.0
2018-Feb-11 00:00N 34°39' E 135°28'0 0.0
2018-Feb-10 23:30N 34°39' E 135°28'0 0.0
2018-Feb-10 23:00N 34°39' E 135°28'0 0.0
2018-Feb-10 22:30N 34°39' E 135°28'0 0.0
2018-Feb-10 22:00N 34°39' E 135°28'0 0.0
2018-Feb-10 21:30N 34°39' E 135°28'0 0.0
2018-Feb-10 21:00N 34°39' E 135°28'0 0.0
2018-Feb-10 20:30N 34°39' E 135°28'0 0.0
2018-Feb-10 20:00N 34°39' E 135°28'0 0.0
2018-Feb-10 19:30N 34°39' E 135°28'0 0.0
2018-Feb-10 19:00N 34°39' E 135°28'0 0.0
2018-Feb-10 18:30N 34°39' E 135°28'0 0.0
2018-Feb-10 18:00N 34°39' E 135°28'0 0.0
2018-Feb-10 17:30N 34°39' E 135°28'0 0.0
2018-Feb-10 17:00N 34°39' E 135°28'0 0.0
2018-Feb-10 16:30N 34°39' E 135°28'0 0.0
2018-Feb-10 16:00N 34°39' E 135°28'0 0.0
2018-Feb-10 15:30N 34°39' E 135°28'0 0.0
2018-Feb-10 15:00N 34°39' E 135°28'0 0.0
2018-Feb-10 14:30N 34°39' E 135°28'0 0.0
2018-Feb-10 14:00N 34°39' E 135°28'0 0.0
2018-Feb-10 13:30N 34°39' E 135°28'0 0.0
2018-Feb-10 13:00N 34°39' E 135°28'0 0.0
2018-Feb-10 12:30N 34°39' E 135°28'0 0.0
2018-Feb-10 12:00N 34°39' E 135°28'0 0.0
2018-Feb-10 11:30N 34°39' E 135°28'0 0.0
2018-Feb-10 11:00N 34°39' E 135°28'0 0.0
2018-Feb-10 10:30N 34°39' E 135°28'0 0.0
2018-Feb-10 10:00N 34°39' E 135°28'0 0.0
2018-Feb-10 09:30N 34°39' E 135°28'0 0.0
2018-Feb-10 09:00N 34°39' E 135°28'0 0.0
2018-Feb-10 08:30N 34°39' E 135°28'0 0.0
2018-Feb-10 08:00N 34°39' E 135°28'0 0.0
2018-Feb-10 07:30N 34°39' E 135°28'0 0.0
2018-Feb-10 07:00N 34°39' E 135°28'0 0.0
2018-Feb-10 06:30N 34°39' E 135°28'0 0.0
2018-Feb-10 06:00N 34°39' E 135°28'0 0.0
2018-Feb-10 05:30N 34°39' E 135°28'0 0.0
2018-Feb-10 05:00N 34°39' E 135°28'0 0.0
2018-Feb-10 04:30N 34°39' E 135°28'0 0.0
2018-Feb-10 04:00N 34°39' E 135°28'0 0.0
2018-Feb-10 03:30N 34°39' E 135°28'0 0.0
2018-Feb-10 03:00N 34°39' E 135°28'0 0.0
2018-Feb-10 02:27N 34°39' E 135°28'0 0.0
2018-Feb-10 02:00N 34°39' E 135°28'0 0.0
2018-Feb-10 01:27N 34°39' E 135°28'0 0.0
2018-Feb-10 01:00N 34°39' E 135°28'0 0.0
2018-Feb-10 00:30N 34°39' E 135°28'0 0.0
2018-Feb-10 00:00N 34°39' E 135°28'0 0.0
2018-Feb-09 23:30N 34°39' E 135°28'0 0.0
2018-Feb-09 23:00N 34°39' E 135°28'0 0.7
2018-Feb-09 22:46N 34°39' E 135°27'8 6.7
2018-Feb-09 21:30N 34°31' E 135°24'  
Track history (hours):
 
Tides and Currents Weather Stations Pressure Air Temp Water Temp Dewpoint Dewpoint Depression Visibility Wind Speed Wind Dir Waves Ship Positions

Kousyoumaru

Last reported at 2018-Feb-19 04:12 UTC. Time now 2018-Feb-19 14:14 UTC.
Position N 41°46' E 141°16'.

Length 75 m; draft 4.5 m.

Type: Cargo ship. MMSI: 431003083.

Date/timePositionNaut miles runAvg speedWind from/ knotsBaromVisibWave heightAir tempDewpointWater temp
2018-Feb-19 04:12N 41°46' E 141°16'311.2
2018-Feb-19 03:56N 41°44' E 141°19'610.6
2018-Feb-19 03:19N 41°39' E 141°24'411.0
2018-Feb-19 02:59N 41°36' E 141°27'610.4
2018-Feb-19 02:25N 41°30' E 141°29'510.8
2018-Feb-19 01:59N 41°26' E 141°31'1212.1
2018-Feb-19 00:59N 41°13' E 141°32'  
2018-Feb-15 10:03N 35°01' E 139°43'111.0
2018-Feb-15 09:59N 35°01' E 139°43'511.0
2018-Feb-15 09:30N 35°07' E 139°45'611.6
2018-Feb-15 09:00N 35°12' E 139°46'611.1
2018-Feb-15 08:30N 35°18' E 139°44'510.5
2018-Feb-15 08:00N 35°22' E 139°40'0 0.2
2018-Feb-15 07:30N 35°22' E 139°40'0 0.0
2018-Feb-15 07:00N 35°22' E 139°40'0 0.0
2018-Feb-15 06:30N 35°22' E 139°40'0 0.1
2018-Feb-15 06:00N 35°22' E 139°40'0 0.0
2018-Feb-15 05:30N 35°22' E 139°40'0 0.0
2018-Feb-15 05:00N 35°22' E 139°40'0 0.0
2018-Feb-15 04:30N 35°22' E 139°40'0 0.0
2018-Feb-15 04:00N 35°22' E 139°40'0 0.0
2018-Feb-15 03:30N 35°22' E 139°40'0 0.0
2018-Feb-15 03:00N 35°22' E 139°40'0 0.0
2018-Feb-15 02:30N 35°22' E 139°40'0 0.1
2018-Feb-15 02:00N 35°22' E 139°40'0 0.0
2018-Feb-15 01:30N 35°22' E 139°40'0 0.0
2018-Feb-15 01:00N 35°22' E 139°40'0 0.0
2018-Feb-15 00:30N 35°22' E 139°40'0 0.0
2018-Feb-15 00:00N 35°22' E 139°40'0 0.1
2018-Feb-14 23:30N 35°22' E 139°40'0 0.0
2018-Feb-14 22:55N 35°22' E 139°40'3 7.7
2018-Feb-14 22:31N 35°24' E 139°43'612.4
2018-Feb-14 22:00N 35°29' E 139°48'611.5
2018-Feb-14 21:29N 35°34' E 139°51'4 0.3
2018-Feb-14 04:12N 35°38' E 139°48'0 0.7
2018-Feb-14 04:00N 35°38' E 139°48'3 6.3
2018-Feb-14 03:30N 35°36' E 139°51'1 3.0
2018-Feb-14 03:00N 35°34' E 139°52'611.7
2018-Feb-14 02:31N 35°28' E 139°51'612.5
2018-Feb-14 02:01N 35°24' E 139°46'611.7
2018-Feb-14 01:30N 35°18' E 139°45'611.5
2018-Feb-14 00:59N 35°12' E 139°47'611.9
2018-Feb-14 00:30N 35°06' E 139°45'611.7
2018-Feb-14 00:00N 35°02' E 139°40'713.0
2018-Feb-13 23:28N 34°58' E 139°33'1114.2
2018-Feb-13 22:42N 34°52' E 139°22'714.3
2018-Feb-13 22:11N 34°48' E 139°15'314.3
2018-Feb-13 21:58N 34°45' E 139°12'613.4
2018-Feb-13 21:30N 34°42' E 139°06'612.2
2018-Feb-13 20:59N 34°38' E 139°00'611.2
2018-Feb-13 20:27N 34°35' E 138°54'912.7
2018-Feb-13 19:44N 34°35' E 138°43'312.5
2018-Feb-13 19:29N 34°34' E 138°39'712.1
2018-Feb-13 18:54N 34°34' E 138°31'1112.3
2018-Feb-13 18:00N 34°33' E 138°17'713.3
2018-Feb-13 17:29N 34°33' E 138°09'16010.5
2018-Feb-13 02:12N 33°53' E 135°01'312.9
2018-Feb-13 02:00N 33°56' E 135°00'613.0
2018-Feb-13 01:30N 34°02' E 134°60'612.8
2018-Feb-13 01:00N 34°08' E 134°59'612.5
2018-Feb-13 00:30N 34°15' E 134°59'611.1
2018-Feb-13 00:00N 34°20' E 134°60'611.1
2018-Feb-12 23:30N 34°24' E 135°04'611.4
2018-Feb-12 23:00N 34°28' E 135°10'611.6
2018-Feb-12 22:31N 34°31' E 135°15'611.7
2018-Feb-12 22:00N 34°35' E 135°21'5 9.2
2018-Feb-12 21:30N 34°35' E 135°26'1 1.8
2018-Feb-12 20:58N 34°35' E 135°27'0 0.0
2018-Feb-12 20:28N 34°35' E 135°27'0 0.0
2018-Feb-12 19:52N 34°35' E 135°27'0 0.0
2018-Feb-12 19:28N 34°35' E 135°27'0 0.0
2018-Feb-12 18:58N 34°35' E 135°27'0 0.0
2018-Feb-12 18:28N 34°35' E 135°27'0 0.0
2018-Feb-12 17:52N 34°35' E 135°27'0 0.0
2018-Feb-12 17:28N 34°35' E 135°27'0 0.0
2018-Feb-12 16:55N 34°35' E 135°27'0 0.0
2018-Feb-12 16:28N 34°35' E 135°27'0 0.0
2018-Feb-12 15:58N 34°35' E 135°27'0 0.0
2018-Feb-12 15:16N 34°35' E 135°27'0 0.0
2018-Feb-12 14:58N 34°35' E 135°27'0 0.0
2018-Feb-12 14:28N 34°35' E 135°27'0 0.0
2018-Feb-12 13:58N 34°35' E 135°27'0 0.0
2018-Feb-12 13:28N 34°35' E 135°27'0 0.0
2018-Feb-12 12:58N 34°35' E 135°27'0 0.0
2018-Feb-12 12:28N 34°35' E 135°27'0 0.0
2018-Feb-12 11:58N 34°35' E 135°27'0 0.0
2018-Feb-12 11:28N 34°35' E 135°27'0 0.0
2018-Feb-12 10:58N 34°35' E 135°27'0 0.0
2018-Feb-12 10:28N 34°35' E 135°27'0 0.0
2018-Feb-12 09:58N 34°35' E 135°27'0 0.0
2018-Feb-12 09:28N 34°35' E 135°27'0 0.0
2018-Feb-12 08:58N 34°35' E 135°27'0 0.0
2018-Feb-12 08:22N 34°35' E 135°27'0 0.0
2018-Feb-12 07:58N 34°35' E 135°27'0 0.0
2018-Feb-12 07:28N 34°35' E 135°27'0 0.0
2018-Feb-12 06:58N 34°35' E 135°27'0 0.0
2018-Feb-12 06:13N 34°35' E 135°27'0 0.0
2018-Feb-12 05:58N 34°35' E 135°27'0 0.0
2018-Feb-12 05:28N 34°35' E 135°27'0 0.0
2018-Feb-12 04:58N 34°35' E 135°27'0 0.0
2018-Feb-12 04:28N 34°35' E 135°27'0 0.0
2018-Feb-12 03:55N 34°35' E 135°27'0 0.0
2018-Feb-12 03:28N 34°35' E 135°27'0 0.0
2018-Feb-12 02:58N 34°35' E 135°27'0 0.0
2018-Feb-12 02:28N 34°35' E 135°27'0 0.0
2018-Feb-12 01:58N 34°35' E 135°27'0 0.0
2018-Feb-12 01:28N 34°35' E 135°27'0 0.0
2018-Feb-12 00:58N 34°35' E 135°27'0 0.0
2018-Feb-12 00:28N 34°35' E 135°27'0 0.0
2018-Feb-11 23:58N 34°35' E 135°27'0 0.0
2018-Feb-11 23:28N 34°35' E 135°27'0 0.0
2018-Feb-11 22:58N 34°35' E 135°27'0 0.0
2018-Feb-11 22:28N 34°35' E 135°27'0 0.0
2018-Feb-11 21:58N 34°35' E 135°27'0 0.0
2018-Feb-11 21:28N 34°35' E 135°27'0 0.0
2018-Feb-11 20:58N 34°35' E 135°27'0 0.0
2018-Feb-11 20:28N 34°35' E 135°27'0 0.0
2018-Feb-11 19:58N 34°35' E 135°27'0 0.0
2018-Feb-11 19:28N 34°35' E 135°27'0 0.0
2018-Feb-11 18:58N 34°35' E 135°27'0 0.0
2018-Feb-11 18:28N 34°35' E 135°27'0 0.0
2018-Feb-11 17:58N 34°35' E 135°27'0 0.0
2018-Feb-11 17:28N 34°35' E 135°27'0 0.0
2018-Feb-11 16:58N 34°35' E 135°27'0 0.0
2018-Feb-11 16:28N 34°35' E 135°27'0 0.0
2018-Feb-11 16:01N 34°35' E 135°27'0 0.0
2018-Feb-11 15:22N 34°35' E 135°27'0 0.0
2018-Feb-11 14:58N 34°35' E 135°27'0 0.0
2018-Feb-11 14:28N 34°35' E 135°27'0 0.0
2018-Feb-11 13:58N 34°35' E 135°27'0 0.0
2018-Feb-11 13:28N 34°35' E 135°27'0 0.0
2018-Feb-11 12:58N 34°35' E 135°27'0 0.8
2018-Feb-11 12:30N 34°35' E 135°27'0 0.8
2018-Feb-11 12:00N 34°35' E 135°27'0 0.0
2018-Feb-11 11:30N 34°35' E 135°27'0 0.0
2018-Feb-11 10:57N 34°35' E 135°27'0 0.0
2018-Feb-11 10:27N 34°35' E 135°27'0 0.1
2018-Feb-11 10:00N 34°35' E 135°27'0 0.1
2018-Feb-11 09:30N 34°35' E 135°27'0 0.1
2018-Feb-11 08:57N 34°35' E 135°27'0 0.0
2018-Feb-11 08:30N 34°35' E 135°27'0 0.0
2018-Feb-11 07:57N 34°35' E 135°27'1 2.1
2018-Feb-11 07:30N 34°35' E 135°26'4 7.2
2018-Feb-11 07:00N 34°39' E 135°25'3 4.9
2018-Feb-11 06:29N 34°39' E 135°28'0 0.0
2018-Feb-11 06:00N 34°39' E 135°28'0 0.0
2018-Feb-11 05:30N 34°39' E 135°28'0 0.0
2018-Feb-11 05:00N 34°39' E 135°28'0 0.0
2018-Feb-11 04:30N 34°39' E 135°28'0 0.0
2018-Feb-11 04:00N 34°39' E 135°28'0 0.0
2018-Feb-11 03:30N 34°39' E 135°28'0 0.0
2018-Feb-11 03:00N 34°39' E 135°28'0 0.0
2018-Feb-11 02:30N 34°39' E 135°28'0 0.0
2018-Feb-11 02:00N 34°39' E 135°28'0 0.0
2018-Feb-11 01:30N 34°39' E 135°28'0 0.0
2018-Feb-11 01:00N 34°39' E 135°28'0 0.0
2018-Feb-11 00:30N 34°39' E 135°28'0 0.0
2018-Feb-11 00:00N 34°39' E 135°28'0 0.0
2018-Feb-10 23:30N 34°39' E 135°28'0 0.0
2018-Feb-10 23:00N 34°39' E 135°28'0 0.0
2018-Feb-10 22:30N 34°39' E 135°28'0 0.0
2018-Feb-10 22:00N 34°39' E 135°28'0 0.0
2018-Feb-10 21:30N 34°39' E 135°28'0 0.0
2018-Feb-10 21:00N 34°39' E 135°28'0 0.0
2018-Feb-10 20:30N 34°39' E 135°28'0 0.0
2018-Feb-10 20:00N 34°39' E 135°28'0 0.0
2018-Feb-10 19:30N 34°39' E 135°28'0 0.0
2018-Feb-10 19:00N 34°39' E 135°28'0 0.0
2018-Feb-10 18:30N 34°39' E 135°28'0 0.0
2018-Feb-10 18:00N 34°39' E 135°28'0 0.0
2018-Feb-10 17:30N 34°39' E 135°28'0 0.0
2018-Feb-10 17:00N 34°39' E 135°28'0 0.0
2018-Feb-10 16:30N 34°39' E 135°28'0 0.0
2018-Feb-10 16:00N 34°39' E 135°28'0 0.0
2018-Feb-10 15:30N 34°39' E 135°28'0 0.0
2018-Feb-10 15:00N 34°39' E 135°28'0 0.0
2018-Feb-10 14:30N 34°39' E 135°28'0 0.0
2018-Feb-10 14:00N 34°39' E 135°28'0 0.0
2018-Feb-10 13:30N 34°39' E 135°28'0 0.0
2018-Feb-10 13:00N 34°39' E 135°28'0 0.0
2018-Feb-10 12:30N 34°39' E 135°28'0 0.0
2018-Feb-10 12:00N 34°39' E 135°28'0 0.0
2018-Feb-10 11:30N 34°39' E 135°28'0 0.0
2018-Feb-10 11:00N 34°39' E 135°28'0 0.0
2018-Feb-10 10:30N 34°39' E 135°28'0 0.0
2018-Feb-10 10:00N 34°39' E 135°28'0 0.0
2018-Feb-10 09:30N 34°39' E 135°28'0 0.0
2018-Feb-10 09:00N 34°39' E 135°28'0 0.0
2018-Feb-10 08:30N 34°39' E 135°28'0 0.0
2018-Feb-10 08:00N 34°39' E 135°28'0 0.0
2018-Feb-10 07:30N 34°39' E 135°28'0 0.0
2018-Feb-10 07:00N 34°39' E 135°28'0 0.0
2018-Feb-10 06:30N 34°39' E 135°28'0 0.0
2018-Feb-10 06:00N 34°39' E 135°28'0 0.0
2018-Feb-10 05:30N 34°39' E 135°28'0 0.0
2018-Feb-10 05:00N 34°39' E 135°28'0 0.0
2018-Feb-10 04:30N 34°39' E 135°28'0 0.0
2018-Feb-10 04:00N 34°39' E 135°28'0 0.0
2018-Feb-10 03:30N 34°39' E 135°28'0 0.0
2018-Feb-10 03:00N 34°39' E 135°28'0 0.0
2018-Feb-10 02:27N 34°39' E 135°28'0 0.0
2018-Feb-10 02:00N 34°39' E 135°28'0 0.0
2018-Feb-10 01:27N 34°39' E 135°28'0 0.0
2018-Feb-10 01:00N 34°39' E 135°28'0 0.0
2018-Feb-10 00:30N 34°39' E 135°28'0 0.0
2018-Feb-10 00:00N 34°39' E 135°28'0 0.0
2018-Feb-09 23:30N 34°39' E 135°28'0 0.0
2018-Feb-09 23:00N 34°39' E 135°28'0 0.7
2018-Feb-09 22:46N 34°39' E 135°27'8 6.7
2018-Feb-09 21:30N 34°31' E 135°24'  

Dump ship's entire track history